Time;durP1;ratioP1;P1;durP2;ratioP2;P2;SDS_P1;SDS_P2;PMS_P1;PMS_P2;Temp;Humidity;BMP_temperature;BMP_pressure;BME280_temperature;BME280_humidity;BME280_pressure;Samples;Min_cycle;Max_cycle;Signal;HPM_P1;HPM_P2
2023/08/05 00:01:37;;;;;;;4.22;2.55;;;13.60;99.90;;;;;;4968588;28;20015;-81
2023/08/05 00:04:03;;;;;;;5.00;3.35;;;13.60;99.90;;;;;;4969000;29;20066;-81
2023/08/05 00:06:28;;;;;;;7.63;3.90;;;13.70;99.90;;;;;;4966569;29;20038;-81
2023/08/05 00:08:54;;;;;;;3.85;3.42;;;13.70;99.90;;;;;;4947778;29;20099;-81
2023/08/05 00:11:25;;;;;;;4.72;3.05;;;13.80;99.90;;;;;;4963267;29;20028;-80
2023/08/05 00:13:50;;;;;;;4.15;3.40;;;13.80;99.90;;;;;;4966302;29;20031;-80
2023/08/05 00:16:17;;;;;;;5.40;2.85;;;13.70;99.90;;;;;;4968960;28;20024;-81
2023/08/05 00:19:11;;;;;;;3.13;2.45;;;13.50;99.90;;;;;;4977491;29;20035;-82
2023/08/05 00:22:11;;;;;;;5.70;3.80;;;13.80;99.90;;;;;;4964461;28;20044;-81
2023/08/05 00:25:21;;;;;;;5.15;3.08;;;13.90;99.90;;;;;;4963616;28;20012;-82
2023/08/05 00:31:28;;;;;;;5.07;2.78;;;14.20;99.90;;;;;;4962376;28;20018;-82
2023/08/05 00:34:20;;;;;;;8.18;3.95;;;13.80;99.90;;;;;;4962110;28;20024;-82
2023/08/05 00:37:05;;;;;;;4.38;3.03;;;13.90;99.90;;;;;;4960517;28;20047;-82
2023/08/05 00:39:31;;;;;;;4.13;3.20;;;13.90;99.90;;;;;;4945198;29;20066;-82
2023/08/05 00:42:19;;;;;;;7.13;3.13;;;13.90;99.90;;;;;;4943836;29;20032;-82
2023/08/05 00:45:29;;;;;;;4.55;2.90;;;14.00;99.90;;;;;;4959427;29;20039;-82
2023/08/05 00:47:56;;;;;;;5.82;2.75;;;12.20;99.90;;;;;;4951347;29;20392;-81
2023/08/05 00:50:24;;;;;;;3.65;2.95;;;13.90;99.90;;;;;;4952529;29;20036;-82
2023/08/05 00:52:52;;;;;;;7.80;3.75;;;13.90;99.90;;;;;;4951322;29;20123;-82
2023/08/05 00:55:21;;;;;;;6.53;3.15;;;13.90;99.90;;;;;;4956551;29;20027;-82
2023/08/05 00:57:47;;;;;;;4.13;3.53;;;13.90;99.90;;;;;;4957598;28;20086;-81
2023/08/05 01:00:35;;;;;;;8.93;3.53;;;13.80;99.90;;;;;;4973955;29;20028;-82
2023/08/05 01:03:01;;;;;;;7.80;3.13;;;13.70;99.90;;;;;;4973395;28;20035;-82
2023/08/05 01:05:28;;;;;;;3.17;2.63;;;14.00;99.90;;;;;;4958345;29;20055;-82
2023/08/05 01:08:01;;;;;;;3.67;3.10;;;13.90;99.90;;;;;;4957485;29;20020;-82
2023/08/05 01:10:39;;;;;;;3.55;2.65;;;13.90;99.90;;;;;;4973917;29;20024;-83
2023/08/05 01:13:51;;;;;;;3.20;2.88;;;13.90;99.90;;;;;;4960232;28;20020;-83
2023/08/05 01:16:16;;;;;;;;;;;13.60;99.90;;;;;;4960581;28;20102;-82
2023/08/05 01:18:43;;;;;;;4.35;3.72;;;13.80;99.90;;;;;;4960019;28;19925;-83
2023/08/05 01:21:54;;;;;;;4.65;3.40;;;13.80;99.90;;;;;;4976670;28;20027;-84
2023/08/05 01:27:40;;;;;;;3.17;2.50;;;13.90;99.90;;;;;;4959748;28;20051;-84
2023/08/05 01:30:26;;;;;;;4.90;3.28;;;14.10;99.90;;;;;;4959406;28;20019;-83
2023/08/05 01:32:53;;;;;;;7.32;3.00;;;13.50;99.90;;;;;;4957631;29;20024;-83
2023/08/05 01:35:22;;;;;;;5.15;3.20;;;13.70;99.90;;;;;;4956431;28;20043;-82
2023/08/05 01:37:48;;;;;;;3.25;2.47;;;13.70;99.90;;;;;;4971795;28;20012;-82
2023/08/05 01:40:17;;;;;;;4.18;3.00;;;13.20;99.90;;;;;;4971560;28;20063;-82
2023/08/05 01:42:44;;;;;;;3.15;2.80;;;13.60;99.90;;;;;;4971760;28;20044;-82
2023/08/05 01:45:14;;;;;;;8.77;2.78;;;13.80;99.90;;;;;;4956190;29;20040;-82
2023/08/05 01:47:49;;;;;;;3.95;2.67;;;13.80;99.90;;;;;;4956480;29;20043;-82
2023/08/05 01:50:17;;;;;;;7.78;3.00;;;13.70;99.90;;;;;;4971714;29;20032;-82
2023/08/05 01:52:43;;;;;;;4.77;2.77;;;13.70;99.90;;;;;;4969148;29;20012;-82
2023/08/05 01:55:09;;;;;;;2.97;2.53;;;13.80;99.90;;;;;;4970662;28;20090;-82
2023/08/05 01:57:40;;;;;;;7.85;2.85;;;13.00;99.90;;;;;;4955940;29;20059;-81
2023/08/05 02:00:07;;;;;;;4.45;3.17;;;13.70;99.90;;;;;;4967616;29;20031;-81
2023/08/05 02:02:33;;;;;;;5.35;3.17;;;13.70;99.90;;;;;;4967930;28;20112;-82
2023/08/05 02:04:59;;;;;;;4.22;3.20;;;13.60;99.90;;;;;;4963495;28;20028;-79
2023/08/05 02:07:25;;;;;;;5.18;3.05;;;13.70;99.90;;;;;;4964449;29;20032;-80
2023/08/05 02:09:51;;;;;;;2.65;2.45;;;13.70;99.90;;;;;;4967041;29;20075;-79
2023/08/05 02:12:17;;;;;;;3.47;3.10;;;13.70;99.90;;;;;;4966661;29;20043;-81
2023/08/05 02:14:42;;;;;;;3.65;3.33;;;13.60;99.90;;;;;;4969222;29;20061;-81
2023/08/05 02:17:09;;;;;;;5.55;2.72;;;13.60;99.90;;;;;;4966871;29;20087;-81
2023/08/05 02:19:35;;;;;;;6.13;3.72;;;13.90;99.90;;;;;;4951447;29;20099;-80
2023/08/05 02:22:00;;;;;;;3.85;2.90;;;12.40;99.90;;;;;;4947191;29;20115;-79
2023/08/05 02:24:26;;;;;;;6.95;3.35;;;13.50;99.90;;;;;;4965034;29;20093;-80
2023/08/05 02:26:52;;;;;;;3.28;2.83;;;13.40;99.90;;;;;;4966359;29;20095;-80
2023/08/05 02:29:17;;;;;;;3.38;2.67;;;13.40;99.90;;;;;;4966984;29;20008;-79
2023/08/05 02:31:43;;;;;;;3.15;2.95;;;13.30;99.90;;;;;;4967523;29;20039;-80
2023/08/05 02:34:09;;;;;;;3.63;3.03;;;13.90;99.90;;;;;;4967091;29;20476;-79
2023/08/05 02:36:34;;;;;;;4.57;3.30;;;13.20;99.90;;;;;;4965192;29;20051;-80
2023/08/05 02:39:07;;;;;;;8.13;2.60;;;13.20;99.90;;;;;;4967217;28;20055;-80
2023/08/05 02:41:33;;;;;;;9.55;3.33;;;13.10;99.90;;;;;;4968827;29;20044;-81
2023/08/05 02:43:59;;;;;;;4.90;3.05;;;13.20;99.90;;;;;;4953639;29;20031;-80
2023/08/05 02:46:25;;;;;;;10.00;4.38;;;13.10;99.90;;;;;;4967687;29;20055;-80
2023/08/05 02:48:50;;;;;;;3.25;2.70;;;13.10;99.90;;;;;;4967997;29;20019;-80
2023/08/05 02:51:16;;;;;;;5.47;3.17;;;13.00;99.90;;;;;;4967048;29;20091;-80
2023/08/05 02:53:42;;;;;;;4.03;2.65;;;12.90;99.90;;;;;;4966982;29;20074;-80
2023/08/05 02:56:07;;;;;;;6.25;3.25;;;12.90;99.90;;;;;;4969152;29;20051;-80
2023/08/05 02:58:33;;;;;;;5.65;3.15;;;13.00;99.90;;;;;;4965661;29;20448;-80
2023/08/05 03:01:09;;;;;;;7.60;3.35;;;12.90;99.90;;;;;;4968328;29;20016;-80
2023/08/05 03:03:43;;;;;;;3.80;3.00;;;12.90;99.90;;;;;;4968643;28;20043;-80
2023/08/05 03:06:09;;;;;;;6.82;4.13;;;12.90;99.90;;;;;;4954066;29;20008;-80
2023/08/05 03:08:35;;;;;;;3.63;3.22;;;12.90;99.90;;;;;;4951889;29;20493;-80
2023/08/05 03:13:46;;;;;;;5.82;3.60;;;13.00;99.90;;;;;;4974398;23;20060;-79
2023/08/05 03:16:13;;;;;;;3.38;3.03;;;13.00;99.90;;;;;;4922330;29;20020;-78
2023/08/05 03:18:39;;;;;;;7.60;2.90;;;13.00;99.90;;;;;;4922486;29;20024;-79
2023/08/05 03:21:04;;;;;;;4.00;2.90;;;12.90;99.90;;;;;;4923175;29;20039;-78
2023/08/05 03:23:30;;;;;;;8.98;3.25;;;12.90;99.90;;;;;;4923807;29;20024;-78
2023/08/05 03:25:56;;;;;;;3.50;2.97;;;12.90;99.90;;;;;;4921832;29;20028;-78
2023/08/05 03:28:21;;;;;;;4.78;3.30;;;12.90;99.90;;;;;;4921323;29;20040;-78
2023/08/05 03:30:47;;;;;;;8.93;3.55;;;13.00;99.90;;;;;;4922798;29;20039;-78
2023/08/05 03:33:13;;;;;;;6.25;3.17;;;13.00;99.90;;;;;;4923301;29;20036;-79
2023/08/05 03:35:45;;;;;;;3.95;2.65;;;13.00;99.90;;;;;;4922482;29;20102;-79
2023/08/05 03:38:10;;;;;;;5.32;3.53;;;13.00;99.90;;;;;;4922567;29;20119;-78
2023/08/05 03:40:36;;;;;;;5.68;3.97;;;13.00;99.90;;;;;;4921661;29;20029;-79
2023/08/05 03:43:03;;;;;;;7.78;3.65;;;13.00;99.90;;;;;;4923397;29;20035;-78
2023/08/05 03:45:29;;;;;;;4.47;3.05;;;12.70;99.90;;;;;;4923145;29;20047;-78
2023/08/05 03:47:56;;;;;;;8.85;3.17;;;13.00;99.90;;;;;;4921983;29;20393;-79
2023/08/05 03:50:22;;;;;;;7.50;2.97;;;13.00;99.90;;;;;;4924023;29;20019;-78
2023/08/05 03:52:48;;;;;;;3.40;3.10;;;13.00;99.90;;;;;;4926627;29;20032;-79
2023/08/05 03:55:14;;;;;;;3.10;2.78;;;13.10;99.90;;;;;;4924891;29;20028;-77
2023/08/05 03:57:40;;;;;;;5.07;3.65;;;13.10;99.90;;;;;;4916509;29;20050;-76
2023/08/05 04:00:09;;;;;;;3.55;3.25;;;13.20;99.90;;;;;;4916464;29;20024;-77
2023/08/05 04:02:35;;;;;;;9.15;2.83;;;13.20;99.90;;;;;;4916755;29;20392;-77
2023/08/05 04:05:03;;;;;;;5.57;2.92;;;13.20;99.90;;;;;;4915712;29;20044;-76
2023/08/05 04:07:29;;;;;;;7.18;2.78;;;13.20;99.90;;;;;;4916690;29;20379;-76
2023/08/05 04:09:55;;;;;;;4.05;3.20;;;13.20;99.90;;;;;;4915993;29;20024;-76
2023/08/05 04:12:20;;;;;;;4.50;3.03;;;13.20;99.90;;;;;;4915508;29;20048;-76
2023/08/05 04:14:46;;;;;;;4.38;2.78;;;13.20;99.90;;;;;;4917788;29;20024;-76
2023/08/05 04:17:14;;;;;;;3.22;2.47;;;13.20;99.90;;;;;;4915851;29;20032;-76
2023/08/05 04:19:41;;;;;;;5.00;2.35;;;13.10;99.90;;;;;;4916995;29;20024;-77
2023/08/05 04:22:06;;;;;;;3.65;3.15;;;13.10;99.90;;;;;;4916957;29;20036;-77
2023/08/05 04:24:33;;;;;;;3.28;2.30;;;13.10;99.90;;;;;;4916224;29;20052;-76
2023/08/05 04:26:59;;;;;;;3.08;2.60;;;13.00;99.90;;;;;;4922697;29;20031;-75
2023/08/05 04:29:25;;;;;;;3.90;2.83;;;12.90;99.90;;;;;;4921281;29;20024;-74
2023/08/05 04:31:52;;;;;;;6.60;2.97;;;12.90;99.90;;;;;;4917232;29;20039;-76
2023/08/05 04:34:18;;;;;;;5.90;2.75;;;12.90;99.90;;;;;;4916219;29;20039;-76
2023/08/05 04:36:51;;;;;;;3.15;2.38;;;12.90;99.90;;;;;;4916156;29;20027;-76
2023/08/05 04:39:20;;;;;;;4.18;2.28;;;12.80;99.90;;;;;;4916042;29;20397;-77
2023/08/05 04:41:46;;;;;;;;;;;12.90;99.90;;;;;;4916163;29;20087;-76
2023/08/05 04:44:12;;;;;;;4.13;2.90;;;12.90;99.90;;;;;;4915806;29;19907;-76
2023/08/05 04:46:37;;;;;;;5.22;2.50;;;12.90;99.90;;;;;;4915534;29;20076;-76
2023/08/05 04:49:05;;;;;;;3.53;2.83;;;12.90;99.90;;;;;;4915792;29;20056;-76
2023/08/05 04:51:30;;;;;;;4.10;3.28;;;13.00;99.90;;;;;;4915883;29;20025;-76
2023/08/05 04:53:56;;;;;;;6.78;3.45;;;13.00;99.90;;;;;;4915628;29;20075;-76
2023/08/05 04:56:25;;;;;;;5.78;3.15;;;13.10;99.90;;;;;;4915743;29;20028;-75
2023/08/05 04:58:51;;;;;;;3.88;3.20;;;13.10;99.90;;;;;;4915748;29;20465;-75
2023/08/05 05:01:17;;;;;;;3.25;2.70;;;13.10;99.90;;;;;;4915171;29;20036;-76
2023/08/05 05:03:46;;;;;;;4.53;2.85;;;13.10;99.90;;;;;;4914848;29;20028;-76
2023/08/05 05:06:12;;;;;;;4.37;3.40;;;13.20;99.90;;;;;;4915440;29;20020;-76
2023/08/05 05:08:37;;;;;;;4.35;3.08;;;13.20;99.90;;;;;;4915373;29;20035;-76
2023/08/05 05:11:03;;;;;;;3.85;3.05;;;13.20;99.90;;;;;;4915504;29;20020;-75
2023/08/05 05:13:29;;;;;;;6.65;3.35;;;13.30;99.90;;;;;;4914976;29;20054;-75
2023/08/05 05:15:55;;;;;;;4.13;3.17;;;13.30;99.90;;;;;;4914902;29;20048;-75
2023/08/05 05:18:20;;;;;;;5.15;3.83;;;13.30;99.90;;;;;;4915675;29;20355;-76
2023/08/05 05:20:50;;;;;;;3.92;3.25;;;13.40;99.90;;;;;;4914968;29;20540;-76
2023/08/05 05:23:16;;;;;;;4.10;3.70;;;13.40;99.90;;;;;;4929580;29;20032;-76
2023/08/05 05:25:41;;;;;;;3.20;2.67;;;13.40;99.90;;;;;;4914921;29;20032;-76
2023/08/05 05:28:07;;;;;;;5.00;2.80;;;13.40;99.90;;;;;;4915221;29;20111;-75
2023/08/05 05:30:35;;;;;;;3.47;3.17;;;13.40;99.90;;;;;;4913488;29;20480;-76
2023/08/05 05:33:01;;;;;;;3.17;2.55;;;13.50;99.90;;;;;;4914979;29;20075;-76
2023/08/05 05:35:28;;;;;;;3.65;2.78;;;13.50;99.90;;;;;;4915067;29;20028;-76
2023/08/05 05:37:54;;;;;;;4.35;2.45;;;13.50;99.90;;;;;;4913422;29;20048;-75
2023/08/05 05:40:19;;;;;;;3.42;2.90;;;13.60;99.90;;;;;;4914710;29;20020;-75
2023/08/05 05:42:48;;;;;;;3.72;3.30;;;13.70;99.90;;;;;;4914587;29;20397;-76
2023/08/05 05:45:14;;;;;;;6.35;2.80;;;13.70;99.90;;;;;;4914539;29;20056;-76
2023/08/05 05:47:40;;;;;;;4.40;2.92;;;13.70;99.90;;;;;;4914799;29;20457;-76
2023/08/05 05:50:07;;;;;;;3.95;2.63;;;13.80;99.90;;;;;;4915154;29;20030;-76
2023/08/05 05:52:33;;;;;;;2.90;2.47;;;13.80;99.90;;;;;;4914515;29;20374;-76
2023/08/05 05:54:59;;;;;;;6.18;3.30;;;13.80;99.90;;;;;;4914529;29;20028;-76
2023/08/05 05:57:25;;;;;;;2.55;2.35;;;13.90;99.90;;;;;;4914561;29;20032;-76
2023/08/05 05:59:50;;;;;;;2.97;2.67;;;14.00;99.90;;;;;;4928402;29;20039;-76
2023/08/05 06:02:16;;;;;;;3.90;2.92;;;14.00;99.90;;;;;;4914190;29;20068;-75
2023/08/05 06:04:44;;;;;;;3.55;2.65;;;14.10;99.90;;;;;;4914253;29;20555;-75
2023/08/05 06:07:10;;;;;;;4.82;2.60;;;14.10;99.90;;;;;;4914345;29;20028;-75
2023/08/05 06:09:35;;;;;;;3.05;2.47;;;14.10;99.90;;;;;;4914435;29;20027;-76
2023/08/05 06:12:01;;;;;;;3.47;2.63;;;14.10;99.90;;;;;;4913931;29;20468;-75
2023/08/05 06:14:29;;;;;;;2.97;2.40;;;14.20;99.90;;;;;;4913434;29;20442;-75
2023/08/05 06:16:55;;;;;;;3.65;2.20;;;14.30;99.90;;;;;;4914046;29;20032;-75
2023/08/05 06:19:20;;;;;;;4.80;2.33;;;14.30;99.90;;;;;;4913734;29;20408;-76
2023/08/05 06:21:46;;;;;;;2.55;1.73;;;14.30;99.90;;;;;;4912481;29;20040;-75
2023/08/05 06:24:12;;;;;;;3.53;2.58;;;14.40;99.90;;;;;;4914055;29;20481;-76
2023/08/05 06:26:38;;;;;;;2.70;2.35;;;14.40;99.90;;;;;;4913853;29;20111;-77
2023/08/05 06:29:04;;;;;;;2.13;2.03;;;14.50;99.90;;;;;;4914054;29;20036;-75
2023/08/05 06:31:30;;;;;;;3.50;2.13;;;14.60;99.90;;;;;;4913608;29;20031;-75
2023/08/05 06:33:57;;;;;;;1.95;1.80;;;14.70;99.90;;;;;;4914158;29;20028;-76
2023/08/05 06:36:22;;;;;;;2.22;2.03;;;14.80;99.90;;;;;;4913796;29;20086;-75
2023/08/05 06:38:48;;;;;;;2.63;2.42;;;14.90;99.90;;;;;;4913718;29;20024;-75
2023/08/05 06:41:14;;;;;;;2.30;2.10;;;15.00;99.90;;;;;;4913895;29;20622;-75
2023/08/05 06:43:40;;;;;;;3.17;1.77;;;15.10;99.90;;;;;;4913780;29;20464;-76
2023/08/05 06:46:06;;;;;;;2.90;2.50;;;15.20;99.90;;;;;;4913789;29;20036;-76
2023/08/05 06:48:32;;;;;;;2.67;2.05;;;15.50;99.90;;;;;;4913291;29;21040;-76
2023/08/05 06:50:58;;;;;;;2.10;2.00;;;15.70;99.90;;;;;;4910685;29;20059;-77
2023/08/05 06:53:24;;;;;;;2.35;2.17;;;16.00;99.90;;;;;;4912902;29;20028;-76
2023/08/05 06:56:03;;;;;;;2.72;1.95;;;16.10;99.90;;;;;;4927543;29;20044;-76
2023/08/05 06:58:29;;;;;;;4.80;3.17;;;16.20;99.90;;;;;;4913237;29;20031;-76
2023/08/05 07:00:55;;;;;;;4.20;2.42;;;16.10;99.90;;;;;;4911533;29;20028;-76
2023/08/05 07:03:23;;;;;;;1.55;1.45;;;16.00;99.90;;;;;;4913493;29;20063;-77
2023/08/05 07:05:48;;;;;;;2.13;1.50;;;16.10;99.90;;;;;;4913557;29;20548;-75
2023/08/05 07:08:14;;;;;;;3.28;1.95;;;16.70;99.90;;;;;;4908217;29;20036;-76
2023/08/05 07:10:40;;;;;;;3.33;2.22;;;17.90;99.90;;;;;;4916368;29;20209;-76
2023/08/05 07:13:06;;;;;;;6.60;2.97;;;18.30;99.90;;;;;;4912894;29;20157;-76
2023/08/05 07:15:38;;;;;;;6.10;1.83;;;18.20;99.90;;;;;;4909132;29;20079;-76
2023/08/05 07:18:05;;;;;;;4.03;2.63;;;17.80;99.90;;;;;;4912894;29;20052;-76
2023/08/05 07:20:30;;;;;;;3.63;1.95;;;17.50;99.90;;;;;;4911209;29;20043;-75
2023/08/05 07:22:56;;;;;;;1.77;1.30;;;17.20;99.90;;;;;;4922504;29;20324;-76
2023/08/05 07:25:22;;;;;;;1.92;1.73;;;17.70;99.90;;;;;;4918415;29;20028;-77
2023/08/05 07:27:47;;;;;;;1.52;1.42;;;19.20;99.90;;;;;;4926222;29;20032;-76
2023/08/05 07:30:13;;;;;;;3.13;1.92;;;20.10;99.90;;;;;;4938340;29;20051;-76
2023/08/05 07:32:39;;;;;;;1.75;1.55;;;20.60;99.90;;;;;;4925983;29;20301;-76
2023/08/05 07:35:07;;;;;;;3.13;1.63;;;19.50;99.90;;;;;;4926756;29;20051;-76
2023/08/05 07:37:34;;;;;;;2.42;1.83;;;18.60;99.90;;;;;;4935056;29;20086;-76
2023/08/05 07:40:00;;;;;;;1.83;1.52;;;18.00;99.90;;;;;;4943399;29;20015;-77
2023/08/05 07:42:27;;;;;;;2.15;1.65;;;18.20;99.90;;;;;;4948845;29;20090;-76
2023/08/05 07:44:53;;;;;;;4.10;1.80;;;18.00;99.90;;;;;;4931931;29;20055;-75
2023/08/05 07:47:19;;;;;;;4.00;2.25;;;17.80;99.90;;;;;;4934030;29;20032;-76
2023/08/05 07:49:45;;;;;;;2.65;2.22;;;17.60;99.90;;;;;;4948426;29;20413;-76
2023/08/05 07:52:11;;;;;;;2.13;1.83;;;18.10;99.90;;;;;;4915772;29;20382;-76
2023/08/05 07:54:36;;;;;;;2.60;1.60;;;18.00;99.90;;;;;;4915453;29;20027;-76
2023/08/05 07:57:02;;;;;;;2.28;2.10;;;18.70;99.90;;;;;;4916544;29;20042;-76
2023/08/05 07:59:28;;;;;;;1.58;1.48;;;18.50;99.90;;;;;;4908890;29;20036;-75
2023/08/05 08:01:55;;;;;;;1.70;1.60;;;17.80;99.90;;;;;;4905021;29;20063;-75
2023/08/05 08:04:21;;;;;;;3.25;2.38;;;17.40;99.90;;;;;;4922057;29;20197;-77
2023/08/05 08:06:47;;;;;;;6.35;2.58;;;17.00;99.90;;;;;;4921868;29;20072;-76
2023/08/05 08:09:13;;;;;;;2.67;2.13;;;16.90;99.90;;;;;;4903178;29;20378;-76
2023/08/05 08:11:40;;;;;;;3.80;1.80;;;17.00;99.90;;;;;;4896780;29;20028;-76
2023/08/05 08:14:05;;;;;;;3.33;1.95;;;17.50;99.90;;;;;;4896836;29;20074;-76
2023/08/05 08:16:32;;;;;;;1.83;1.73;;;17.90;99.90;;;;;;4912048;29;20414;-76
2023/08/05 08:18:58;;;;;;;2.35;1.77;;;18.30;99.90;;;;;;4896791;29;20037;-76
2023/08/05 08:21:24;;;;;;;2.22;1.80;;;19.70;99.90;;;;;;4911022;29;20047;-76
2023/08/05 08:23:49;;;;;;;2.30;1.65;;;20.50;99.90;;;;;;4896084;29;20025;-76
2023/08/05 08:26:15;;;;;;;1.70;1.60;;;20.60;99.90;;;;;;4897227;29;20104;-76
2023/08/05 08:28:41;;;;;;;3.17;1.45;;;20.60;99.90;;;;;;4921106;29;20032;-76
2023/08/05 08:31:06;;;;;;;2.78;1.90;;;20.20;99.90;;;;;;4935811;29;20252;-76
2023/08/05 08:33:32;;;;;;;2.85;2.03;;;19.20;99.90;;;;;;4920421;29;20054;-75
2023/08/05 08:35:57;;;;;;;1.70;1.60;;;18.60;99.90;;;;;;4939999;29;20039;-75
2023/08/05 08:38:23;;;;;;;1.75;1.58;;;18.20;99.90;;;;;;4917839;29;20032;-74
2023/08/05 08:40:52;;;;;;;2.97;1.83;;;19.30;99.90;;;;;;4919778;29;20032;-75
2023/08/05 08:43:21;;;;;;;4.40;1.67;;;20.10;99.90;;;;;;4920186;29;20063;-74
2023/08/05 08:45:51;;;;;;;2.13;2.00;;;19.50;99.90;;;;;;4925816;29;20032;-75
2023/08/05 08:48:17;;;;;;;3.67;1.70;;;18.90;99.90;;;;;;4922618;29;20115;-75
2023/08/05 08:50:44;;;;;;;2.50;1.83;;;18.50;99.90;;;;;;4908660;29;20040;-74
2023/08/05 08:53:13;;;;;;;1.88;1.77;;;18.20;99.90;;;;;;4916569;29;20430;-74
2023/08/05 08:55:41;;;;;;;3.03;2.25;;;18.00;99.90;;;;;;4918151;29;20454;-74
2023/08/05 08:58:07;;;;;;;3.38;2.40;;;17.90;99.90;;;;;;4909162;29;20062;-75
2023/08/05 09:00:34;;;;;;;3.25;2.00;;;18.10;99.90;;;;;;4917639;29;20032;-75
2023/08/05 09:03:03;;;;;;;1.80;1.70;;;19.10;99.90;;;;;;4916493;29;20039;-75
2023/08/05 09:05:35;;;;;;;1.73;1.60;;;19.50;99.90;;;;;;4919330;29;20407;-74
2023/08/05 09:08:03;;;;;;;4.97;1.95;;;19.50;99.90;;;;;;4919816;29;20092;-75
2023/08/05 09:10:29;;;;;;;4.90;2.00;;;19.20;99.90;;;;;;4933590;29;20021;-74
2023/08/05 09:12:57;;;;;;;2.97;1.80;;;19.70;99.90;;;;;;4914256;29;20375;-78
2023/08/05 09:15:32;;;;;;;2.25;1.70;;;19.80;99.90;;;;;;4913729;29;20434;-75
2023/08/05 09:17:58;;;;;;;2.03;1.83;;;19.90;99.90;;;;;;4913140;29;20083;-74
2023/08/05 09:20:24;;;;;;;2.25;2.08;;;19.80;99.90;;;;;;4914154;29;20060;-75
2023/08/05 09:23:00;;;;;;;2.30;2.00;;;20.10;99.90;;;;;;4914256;29;20115;-77
2023/08/05 09:25:27;;;;;;;1.92;1.80;;;20.30;99.90;;;;;;4915268;29;20528;-77
2023/08/05 09:27:53;;;;;;;1.67;1.50;;;19.80;99.90;;;;;;4913513;29;20028;-79
2023/08/05 09:30:24;;;;;;;2.58;1.83;;;19.10;99.90;;;;;;4914784;29;20032;-74
2023/08/05 09:32:51;;;;;;;1.55;1.45;;;19.60;99.90;;;;;;4915042;29;20022;-75
2023/08/05 09:35:17;;;;;;;1.90;1.70;;;19.90;99.90;;;;;;4924150;29;20386;-79
2023/08/05 10:04:33;;;;;;;5.38;1.70;;;20.00;99.90;;;;;;5279139;23;20104;-77
2023/08/05 10:07:00;;;;;;;1.42;1.33;;;20.20;99.90;;;;;;4990516;28;20030;-77
2023/08/05 10:09:26;;;;;;;2.35;1.55;;;20.70;99.90;;;;;;4964212;28;20386;-77
2023/08/05 10:11:52;;;;;;;1.80;1.52;;;20.70;99.90;;;;;;4974663;28;20018;-77
2023/08/05 10:14:19;;;;;;;1.90;1.50;;;20.70;99.90;;;;;;4992756;28;20042;-77
2023/08/05 10:16:46;;;;;;;3.10;1.48;;;20.40;99.90;;;;;;5002313;28;20026;-78
2023/08/05 10:19:11;;;;;;;1.83;1.65;;;20.40;99.90;;;;;;4991126;28;20029;-78
2023/08/05 10:21:40;;;;;;;1.98;1.70;;;20.70;99.90;;;;;;4990472;28;20034;-78
2023/08/05 10:24:06;;;;;;;2.08;1.50;;;21.30;99.90;;;;;;4979313;28;20034;-79
2023/08/05 10:26:45;;;;;;;2.42;1.17;;;21.60;99.90;;;;;;4987920;28;20133;-78
2023/08/05 10:29:27;;;;;;;;;;;21.60;99.90;;;;;;4966413;28;20026;-79
2023/08/05 10:32:09;;;;;;;2.55;1.40;;;21.10;99.90;;;;;;5003897;28;19906;-78
2023/08/05 10:34:34;;;;;;;2.63;2.42;;;21.10;99.90;;;;;;4982786;28;20019;-78
2023/08/05 10:37:00;;;;;;;2.08;1.35;;;21.10;99.90;;;;;;4987340;28;20394;-78
2023/08/05 10:39:41;;;;;;;2.67;1.52;;;21.40;99.90;;;;;;4990878;28;20033;-78
2023/08/05 10:42:29;;;;;;;2.92;1.83;;;21.50;99.90;;;;;;4981531;28;20058;-72
2023/08/05 10:44:55;;;;;;;1.55;1.45;;;21.00;99.90;;;;;;4977098;28;20181;-75
2023/08/05 10:47:21;;;;;;;2.08;1.50;;;21.70;99.90;;;;;;4999152;28;20154;-74
2023/08/05 10:49:57;;;;;;;1.60;1.50;;;22.00;98.40;;;;;;4990726;28;20018;-74
2023/08/05 10:52:23;;;;;;;3.30;2.03;;;22.40;99.60;;;;;;4980605;28;20500;-74
2023/08/05 10:54:51;;;;;;;1.48;1.38;;;22.40;99.40;;;;;;4988351;28;20089;-74
2023/08/05 10:57:35;;;;;;;1.67;1.15;;;22.20;98.50;;;;;;4989351;28;20474;-75
2023/08/05 11:00:03;;;;;;;1.60;1.50;;;22.00;98.70;;;;;;4989044;28;20031;-74
2023/08/05 11:02:29;;;;;;;1.35;1.25;;;22.20;98.10;;;;;;4985866;28;20038;-75
2023/08/05 11:05:08;;;;;;;2.67;1.83;;;22.30;96.80;;;;;;4994497;28;20049;-76
2023/08/05 11:07:37;;;;;;;1.25;1.15;;;23.00;95.80;;;;;;4997696;28;20109;-76
2023/08/05 11:10:06;;;;;;;2.88;2.28;;;22.90;95.40;;;;;;4992825;28;20057;-74
2023/08/05 11:12:32;;;;;;;2.78;1.35;;;23.10;93.90;;;;;;4986250;28;20037;-74
2023/08/05 11:14:59;;;;;;;1.58;1.48;;;23.20;94.30;;;;;;4972208;28;20101;-74
2023/08/05 11:17:25;;;;;;;4.95;1.70;;;22.50;94.40;;;;;;4988053;28;20018;-77
2023/08/05 11:19:51;;;;;;;1.08;1.08;;;22.60;94.00;;;;;;4988017;28;20098;-74
2023/08/05 11:22:27;;;;;;;2.70;1.20;;;22.80;93.20;;;;;;4970753;28;20121;-75
2023/08/05 11:25:00;;;;;;;4.47;1.90;;;22.90;92.60;;;;;;4987736;28;20018;-74
2023/08/05 11:27:37;;;;;;;2.33;1.60;;;23.60;91.70;;;;;;4981142;28;20044;-75
2023/08/05 11:30:17;;;;;;;2.03;1.25;;;23.70;89.50;;;;;;4987090;28;20054;-75
2023/08/05 11:32:55;;;;;;;2.38;1.13;;;23.20;90.50;;;;;;5001665;28;20030;-76
2023/08/05 11:35:21;;;;;;;2.10;1.00;;;23.70;90.30;;;;;;4986387;28;20088;-75
2023/08/05 11:37:47;;;;;;;4.68;1.83;;;23.80;91.00;;;;;;4995672;28;20038;-74
2023/08/05 11:40:13;;;;;;;1.33;1.23;;;24.40;91.00;;;;;;4999155;28;20050;-74
2023/08/05 11:42:42;;;;;;;1.02;0.95;;;24.90;85.90;;;;;;4997677;28;20133;-75
2023/08/05 11:45:14;;;;;;;4.68;1.52;;;24.70;84.60;;;;;;4998342;28;20041;-78
2023/08/05 11:47:41;;;;;;;1.25;1.00;;;24.70;84.70;;;;;;4990976;28;20087;-78
2023/08/05 11:50:09;;;;;;;2.55;1.20;;;25.10;80.90;;;;;;4993918;28;20233;-79
2023/08/05 11:52:35;;;;;;;4.05;1.20;;;25.00;82.70;;;;;;4986589;28;20010;-78
2023/08/05 11:55:03;;;;;;;1.50;1.23;;;24.80;79.40;;;;;;4967980;28;20031;-79
2023/08/05 11:57:29;;;;;;;2.10;1.00;;;24.70;80.60;;;;;;4981401;28;20034;-79
2023/08/05 11:59:57;;;;;;;0.60;0.60;;;25.00;78.40;;;;;;4982773;28;20105;-78
2023/08/05 12:02:26;;;;;;;1.23;1.17;;;24.90;77.80;;;;;;4981352;28;20145;-79
2023/08/05 12:05:00;;;;;;;1.17;1.13;;;25.20;77.80;;;;;;4982636;28;20102;-79
2023/08/05 12:07:26;;;;;;;1.25;1.00;;;25.60;77.90;;;;;;4980657;28;20406;-79
2023/08/05 12:10:15;;;;;;;1.95;1.10;;;25.80;78.40;;;;;;4987818;28;20026;-79
2023/08/05 12:13:06;;;;;;;1.42;1.27;;;24.50;80.30;;;;;;4988019;28;20062;-79
2023/08/05 12:15:32;;;;;;;2.03;1.35;;;23.70;82.90;;;;;;4982089;28;20038;-78
2023/08/05 12:18:07;;;;;;;1.67;0.80;;;24.50;82.80;;;;;;4989297;28;20026;-79
2023/08/05 12:20:34;;;;;;;2.58;1.10;;;24.70;78.50;;;;;;4986543;28;20031;-79
2023/08/05 12:23:03;;;;;;;1.10;1.00;;;25.00;76.90;;;;;;4989335;28;20070;-79
2023/08/05 12:25:31;;;;;;;3.90;0.98;;;25.80;75.40;;;;;;4986100;28;20029;-79
2023/08/05 12:27:58;;;;;;;3.72;1.23;;;25.70;74.70;;;;;;4988445;28;20114;-79
2023/08/05 12:30:24;;;;;;;2.28;0.85;;;25.70;77.70;;;;;;4988281;28;20504;-78
2023/08/05 12:32:51;;;;;;;1.20;1.10;;;25.90;74.50;;;;;;4988396;28;20109;-79
2023/08/05 12:35:16;;;;;;;0.77;0.77;;;26.80;71.50;;;;;;4992653;28;20037;-79
2023/08/05 12:37:42;;;;;;;1.45;1.00;;;27.70;71.60;;;;;;4987820;28;20122;-78
2023/08/05 12:40:10;;;;;;;1.65;0.88;;;27.60;70.20;;;;;;4990842;28;20026;-78
2023/08/05 12:42:36;;;;;;;1.20;0.90;;;25.00;72.40;;;;;;4988338;28;20042;-79
2023/08/05 12:45:05;;;;;;;0.90;0.90;;;23.30;77.20;;;;;;4990183;28;20029;-79
2023/08/05 12:47:31;;;;;;;2.05;1.17;;;22.70;79.10;;;;;;4992074;28;20034;-79
2023/08/05 12:49:57;;;;;;;0.70;0.70;;;22.30;80.60;;;;;;4988333;28;20430;-79
2023/08/05 12:52:23;;;;;;;1.30;0.85;;;22.20;80.60;;;;;;4987616;28;20042;-79
2023/08/05 12:54:49;;;;;;;1.95;0.98;;;22.10;78.70;;;;;;4987489;28;20050;-79
2023/08/05 12:57:15;;;;;;;1.30;1.20;;;22.80;80.70;;;;;;4990164;28;20034;-79
2023/08/05 12:59:40;;;;;;;1.08;1.08;;;23.00;81.70;;;;;;4987715;28;20460;-78
2023/08/05 13:02:06;;;;;;;1.30;1.20;;;22.30;81.10;;;;;;4989296;28;20031;-78
2023/08/05 13:04:31;;;;;;;1.20;0.90;;;22.30;83.20;;;;;;4971165;28;20197;-79
2023/08/05 13:06:57;;;;;;;3.42;1.40;;;23.50;82.40;;;;;;4971907;28;20085;-78
2023/08/05 13:09:23;;;;;;;1.88;1.45;;;23.70;78.20;;;;;;4991946;28;20022;-79
2023/08/05 13:11:48;;;;;;;1.40;1.30;;;23.00;80.60;;;;;;4990393;28;20030;-79
2023/08/05 13:14:14;;;;;;;1.60;1.10;;;23.50;81.50;;;;;;4974271;28;20022;-79
2023/08/05 13:16:40;;;;;;;1.90;1.00;;;23.30;80.20;;;;;;4991147;28;20387;-79
2023/08/05 13:19:09;;;;;;;2.85;0.90;;;23.10;81.80;;;;;;4992257;28;20022;-79
2023/08/05 13:21:36;;;;;;;1.40;1.00;;;23.00;81.80;;;;;;4990271;28;20023;-79
2023/08/05 13:24:02;;;;;;;1.05;1.00;;;22.90;83.50;;;;;;4989599;28;20066;-79
2023/08/05 13:26:29;;;;;;;1.50;1.13;;;23.10;84.40;;;;;;4990343;28;20026;-80
2023/08/05 13:28:55;;;;;;;1.38;1.10;;;23.40;86.30;;;;;;4990042;28;20117;-79
2023/08/05 13:31:20;;;;;;;0.70;0.70;;;25.20;83.70;;;;;;4989992;28;20033;-78